Airfield :
LOGIN :

Register | Disclaimer

   EN    FR    IT 

 










Legend :    VFR   Marginal VFR   IFR   Intensive IFR   Very Intensive IFR
Visi :
Ceiling :
>= 8 km
>= 3000ft
5 to 8 km
1000 to 3000 ft
1500m to 5 km
500 to 1000 ft
800 to 1500m
200 to 500 ft
< 800m
< 200 ft
Symbols :   Thunderstorms  Fog  Heavy snow  Heavy precipitations  Wind > 20 kt
SIGMETs :     Misc.  Thunderstorms  Icing  Turbulence  Mountain Waves  Volcanic Ashes







- Airport Elevation : 1363 ft


ETIC - Grafenwohr Army Air Field

CURRENT METAR :
  • 221156Z AUTO 08005KT 9999 CLR 17/05 A3042 RMK AO2 SLP310 T01740047 10174 21017 57013 FZRANO $

EXPIRED METARs :
  • 221056Z AUTO 12004KT 9999 CLR 16/05 A3044 RMK AO2 SLP319 T01630047 FZRANO $
  • 220856Z AUTO 00000KT 9999 CLR 11/03 A3046 RMK AO2 SLP328 T01060032 50001 FZRANO $

TAF TAF ETIC
Valid from the 22 at 12:00 until the 23 at 18:00 UTC


221200Z 2212/2318 VRB06KT 9999 SCT250 QNH3037INS
BECMG 2302/2303 VRB06KT 6000 BR BKN020 QNH3033INS
BECMG 2308/2309 32012KT 9999 NSW BKN030 QNH3031INS TX18/2214Z TN02/2305Z
No reported NOTAMs for that airfield.



MET'MAP, your aeronautical weather chart ! - Copyright ORBIFLY December 2007 - Disclaimer

ORBIFLY MET'MAP TEAM :

Programming & Development : Alexandra Zaïnal
Concept & Development : Baudouin d'Aumeries
Co-Development & Prog : Marc-Olivier Méhu
Technical & hardware support : Manuel Goepfert

Contact : metmap@orbifly.com




SOURCES & CREDITS :

   NOAA